KLEE

Leesburg International Airport

Leesburg, Florida, USA
METAR KLEE 201453Z 14011G17KT 10SM SCT021 26/21 A3037 RMK AO2 SLP283 T02560206 51014
Observed Flight Rules
Feb-20 @ 14:53 UTC (3 hours ago) Visual Flight Rules
Wind Visibility Clouds
140° at 11 knots
 Gusting to 17 knots
10 miles
  • Scattered at 2,100' AGL
Temperatures Readings
Current 26°C / 79°F
Dewpoint 21°C / 70°F
Humidity 74%
Altimeter 30.37" Hg
Pressure 1028.3 hPa
Elevation 23
METAR KLEE 201453Z 14011G17KT 10SM SCT021 26/21 A3037 RMK AO2 SLP283 T02560206 51014
Observed Flight Rules
Feb-20 @ 14:53 UTC
(3 hours ago)
VFR
Wind Visibility
140° at 11 knots
 Gusting to 17 knots
10 miles
Clouds
  • Scattered at 2,100' AGL
Temperature Dewpoint
26°C / 79°F 21°C / 70°F
Humidity Altimeter Pressure
74% 30.37" Hg 1028.3 hPa